sensor_id;sensor_type;location;lat;lon;timestamp;P1;durP1;ratioP1;P2;durP2;ratioP2
80694;SDS011;70059;42.702;23.312;2023-06-10T00:00:33;13.70;;;7.68;;
80694;SDS011;70059;42.702;23.312;2023-06-10T00:03:05;12.85;;;7.28;;
80694;SDS011;70059;42.702;23.312;2023-06-10T00:05:31;9.07;;;7.15;;
80694;SDS011;70059;42.702;23.312;2023-06-10T00:07:57;7.70;;;6.90;;
80694;SDS011;70059;42.702;23.312;2023-06-10T00:10:23;10.98;;;7.60;;
80694;SDS011;70059;42.702;23.312;2023-06-10T00:12:49;10.98;;;7.30;;
80694;SDS011;70059;42.702;23.312;2023-06-10T00:15:16;9.05;;;7.22;;
80694;SDS011;70059;42.702;23.312;2023-06-10T00:17:42;11.52;;;7.75;;
80694;SDS011;70059;42.702;23.312;2023-06-10T00:20:08;9.25;;;7.95;;
80694;SDS011;70059;42.702;23.312;2023-06-10T00:22:36;10.52;;;8.15;;
80694;SDS011;70059;42.702;23.312;2023-06-10T00:25:04;9.07;;;7.88;;
80694;SDS011;70059;42.702;23.312;2023-06-10T00:27:31;13.00;;;8.90;;
80694;SDS011;70059;42.702;23.312;2023-06-10T00:30:01;11.63;;;8.23;;
80694;SDS011;70059;42.702;23.312;2023-06-10T00:32:32;11.25;;;8.50;;
80694;SDS011;70059;42.702;23.312;2023-06-10T00:34:58;11.55;;;8.68;;
80694;SDS011;70059;42.702;23.312;2023-06-10T00:37:24;14.15;;;9.13;;
80694;SDS011;70059;42.702;23.312;2023-06-10T00:39:49;13.18;;;7.93;;
80694;SDS011;70059;42.702;23.312;2023-06-10T00:42:15;12.35;;;8.68;;
80694;SDS011;70059;42.702;23.312;2023-06-10T00:44:41;12.30;;;8.77;;
80694;SDS011;70059;42.702;23.312;2023-06-10T00:47:07;10.63;;;8.95;;
80694;SDS011;70059;42.702;23.312;2023-06-10T00:49:33;11.00;;;8.32;;
80694;SDS011;70059;42.702;23.312;2023-06-10T00:51:59;9.80;;;8.18;;
80694;SDS011;70059;42.702;23.312;2023-06-10T00:54:26;11.43;;;8.60;;
80694;SDS011;70059;42.702;23.312;2023-06-10T00:56:52;12.93;;;8.50;;
80694;SDS011;70059;42.702;23.312;2023-06-10T00:59:18;10.88;;;9.57;;
80694;SDS011;70059;42.702;23.312;2023-06-10T01:01:45;14.75;;;11.15;;
80694;SDS011;70059;42.702;23.312;2023-06-10T01:04:12;12.18;;;9.90;;
80694;SDS011;70059;42.702;23.312;2023-06-10T01:07:00;12.82;;;10.63;;
80694;SDS011;70059;42.702;23.312;2023-06-10T01:12:49;15.50;;;11.13;;
80694;SDS011;70059;42.702;23.312;2023-06-10T01:15:24;19.52;;;15.90;;
80694;SDS011;70059;42.702;23.312;2023-06-10T01:17:57;20.63;;;16.48;;
80694;SDS011;70059;42.702;23.312;2023-06-10T01:20:24;22.42;;;17.67;;
80694;SDS011;70059;42.702;23.312;2023-06-10T01:22:54;23.45;;;17.77;;
80694;SDS011;70059;42.702;23.312;2023-06-10T01:25:21;21.13;;;15.52;;
80694;SDS011;70059;42.702;23.312;2023-06-10T01:27:53;19.55;;;14.70;;
80694;SDS011;70059;42.702;23.312;2023-06-10T01:30:33;17.67;;;12.63;;
80694;SDS011;70059;42.702;23.312;2023-06-10T01:33:19;15.70;;;11.05;;
80694;SDS011;70059;42.702;23.312;2023-06-10T01:35:52;15.35;;;11.07;;
80694;SDS011;70059;42.702;23.312;2023-06-10T01:38:19;11.52;;;9.77;;
80694;SDS011;70059;42.702;23.312;2023-06-10T01:40:46;13.23;;;9.90;;
80694;SDS011;70059;42.702;23.312;2023-06-10T01:43:14;12.48;;;9.82;;
80694;SDS011;70059;42.702;23.312;2023-06-10T01:45:40;13.60;;;10.15;;
80694;SDS011;70059;42.702;23.312;2023-06-10T01:48:05;13.05;;;9.77;;
80694;SDS011;70059;42.702;23.312;2023-06-10T01:50:31;13.35;;;9.77;;
80694;SDS011;70059;42.702;23.312;2023-06-10T01:52:58;14.38;;;10.45;;
80694;SDS011;70059;42.702;23.312;2023-06-10T01:55:24;14.90;;;10.57;;
80694;SDS011;70059;42.702;23.312;2023-06-10T01:57:50;14.23;;;11.55;;
80694;SDS011;70059;42.702;23.312;2023-06-10T02:00:16;15.57;;;11.32;;
80694;SDS011;70059;42.702;23.312;2023-06-10T02:02:42;19.25;;;11.25;;
80694;SDS011;70059;42.702;23.312;2023-06-10T02:05:08;15.63;;;11.35;;
80694;SDS011;70059;42.702;23.312;2023-06-10T02:07:34;16.23;;;10.65;;
80694;SDS011;70059;42.702;23.312;2023-06-10T02:09:59;13.55;;;10.35;;
80694;SDS011;70059;42.702;23.312;2023-06-10T02:12:26;14.25;;;9.80;;
80694;SDS011;70059;42.702;23.312;2023-06-10T02:14:51;11.63;;;9.98;;
80694;SDS011;70059;42.702;23.312;2023-06-10T02:17:17;14.25;;;9.85;;
80694;SDS011;70059;42.702;23.312;2023-06-10T02:19:43;11.38;;;9.63;;
80694;SDS011;70059;42.702;23.312;2023-06-10T02:22:09;12.10;;;9.93;;
80694;SDS011;70059;42.702;23.312;2023-06-10T02:24:37;13.93;;;9.73;;
80694;SDS011;70059;42.702;23.312;2023-06-10T02:27:04;12.75;;;9.20;;
80694;SDS011;70059;42.702;23.312;2023-06-10T02:29:32;14.65;;;8.88;;
80694;SDS011;70059;42.702;23.312;2023-06-10T02:31:59;12.32;;;9.27;;
80694;SDS011;70059;42.702;23.312;2023-06-10T02:34:24;11.52;;;9.00;;
80694;SDS011;70059;42.702;23.312;2023-06-10T02:36:50;11.93;;;9.35;;
80694;SDS011;70059;42.702;23.312;2023-06-10T02:39:16;14.20;;;9.13;;
80694;SDS011;70059;42.702;23.312;2023-06-10T02:41:42;11.20;;;9.00;;
80694;SDS011;70059;42.702;23.312;2023-06-10T02:44:07;11.55;;;9.32;;
80694;SDS011;70059;42.702;23.312;2023-06-10T02:46:33;12.90;;;9.43;;
80694;SDS011;70059;42.702;23.312;2023-06-10T02:48:59;15.43;;;9.20;;
80694;SDS011;70059;42.702;23.312;2023-06-10T02:51:25;11.55;;;8.48;;
80694;SDS011;70059;42.702;23.312;2023-06-10T02:53:51;14.35;;;10.27;;
80694;SDS011;70059;42.702;23.312;2023-06-10T02:56:16;20.08;;;13.20;;
80694;SDS011;70059;42.702;23.312;2023-06-10T02:58:42;31.45;;;22.95;;
80694;SDS011;70059;42.702;23.312;2023-06-10T03:01:08;45.53;;;32.30;;
80694;SDS011;70059;42.702;23.312;2023-06-10T03:03:35;34.78;;;26.45;;
80694;SDS011;70059;42.702;23.312;2023-06-10T03:06:02;26.20;;;19.38;;
80694;SDS011;70059;42.702;23.312;2023-06-10T03:08:28;26.92;;;19.88;;
80694;SDS011;70059;42.702;23.312;2023-06-10T03:10:53;29.10;;;21.33;;
80694;SDS011;70059;42.702;23.312;2023-06-10T03:13:19;23.17;;;17.08;;
80694;SDS011;70059;42.702;23.312;2023-06-10T03:15:46;19.45;;;14.38;;
80694;SDS011;70059;42.702;23.312;2023-06-10T03:18:12;17.13;;;12.98;;
80694;SDS011;70059;42.702;23.312;2023-06-10T03:20:38;15.95;;;10.65;;
80694;SDS011;70059;42.702;23.312;2023-06-10T03:23:04;18.63;;;11.88;;
80694;SDS011;70059;42.702;23.312;2023-06-10T03:25:33;13.93;;;11.07;;
80694;SDS011;70059;42.702;23.312;2023-06-10T03:27:59;14.65;;;11.23;;
80694;SDS011;70059;42.702;23.312;2023-06-10T03:30:25;15.07;;;11.50;;
80694;SDS011;70059;42.702;23.312;2023-06-10T03:32:50;16.02;;;12.00;;
80694;SDS011;70059;42.702;23.312;2023-06-10T03:35:16;17.23;;;12.02;;
80694;SDS011;70059;42.702;23.312;2023-06-10T03:37:42;18.48;;;11.43;;
80694;SDS011;70059;42.702;23.312;2023-06-10T03:40:08;15.15;;;11.18;;
80694;SDS011;70059;42.702;23.312;2023-06-10T03:42:37;12.93;;;11.18;;
80694;SDS011;70059;42.702;23.312;2023-06-10T03:45:03;14.73;;;10.52;;
80694;SDS011;70059;42.702;23.312;2023-06-10T03:47:36;18.50;;;11.25;;
80694;SDS011;70059;42.702;23.312;2023-06-10T03:50:05;13.07;;;10.50;;
80694;SDS011;70059;42.702;23.312;2023-06-10T03:52:33;14.73;;;10.30;;
80694;SDS011;70059;42.702;23.312;2023-06-10T03:55:00;13.10;;;10.77;;
80694;SDS011;70059;42.702;23.312;2023-06-10T03:57:25;14.90;;;11.50;;
80694;SDS011;70059;42.702;23.312;2023-06-10T03:59:51;13.93;;;8.95;;
80694;SDS011;70059;42.702;23.312;2023-06-10T04:02:17;11.50;;;8.55;;
80694;SDS011;70059;42.702;23.312;2023-06-10T04:04:42;10.95;;;8.60;;
80694;SDS011;70059;42.702;23.312;2023-06-10T04:07:08;10.93;;;8.07;;
80694;SDS011;70059;42.702;23.312;2023-06-10T04:09:34;9.30;;;8.27;;
80694;SDS011;70059;42.702;23.312;2023-06-10T04:12:04;12.75;;;8.23;;
80694;SDS011;70059;42.702;23.312;2023-06-10T04:14:31;12.65;;;8.90;;
80694;SDS011;70059;42.702;23.312;2023-06-10T04:16:57;10.73;;;8.68;;
80694;SDS011;70059;42.702;23.312;2023-06-10T04:19:22;12.98;;;9.27;;
80694;SDS011;70059;42.702;23.312;2023-06-10T04:21:48;12.77;;;10.32;;
80694;SDS011;70059;42.702;23.312;2023-06-10T04:24:14;15.25;;;11.20;;
80694;SDS011;70059;42.702;23.312;2023-06-10T04:26:39;19.42;;;11.32;;
80694;SDS011;70059;42.702;23.312;2023-06-10T04:29:05;15.23;;;10.25;;
80694;SDS011;70059;42.702;23.312;2023-06-10T04:31:31;15.48;;;10.95;;
80694;SDS011;70059;42.702;23.312;2023-06-10T04:33:57;15.95;;;10.55;;
80694;SDS011;70059;42.702;23.312;2023-06-10T04:36:23;15.95;;;11.30;;
80694;SDS011;70059;42.702;23.312;2023-06-10T04:38:48;13.40;;;9.82;;
80694;SDS011;70059;42.702;23.312;2023-06-10T04:41:16;14.57;;;10.13;;
80694;SDS011;70059;42.702;23.312;2023-06-10T04:43:42;12.70;;;10.50;;
80694;SDS011;70059;42.702;23.312;2023-06-10T04:46:08;17.35;;;11.27;;
80694;SDS011;70059;42.702;23.312;2023-06-10T04:48:33;16.10;;;10.80;;
80694;SDS011;70059;42.702;23.312;2023-06-10T04:51:00;14.68;;;10.52;;
80694;SDS011;70059;42.702;23.312;2023-06-10T04:53:26;14.60;;;10.05;;
80694;SDS011;70059;42.702;23.312;2023-06-10T04:55:53;12.95;;;10.30;;
80694;SDS011;70059;42.702;23.312;2023-06-10T04:58:19;12.40;;;9.93;;
80694;SDS011;70059;42.702;23.312;2023-06-10T05:00:45;12.38;;;10.05;;
80694;SDS011;70059;42.702;23.312;2023-06-10T05:03:10;13.13;;;9.77;;
80694;SDS011;70059;42.702;23.312;2023-06-10T05:05:36;12.50;;;9.80;;
80694;SDS011;70059;42.702;23.312;2023-06-10T05:08:02;13.77;;;9.75;;
80694;SDS011;70059;42.702;23.312;2023-06-10T05:10:28;11.77;;;9.45;;
80694;SDS011;70059;42.702;23.312;2023-06-10T05:12:56;10.20;;;7.88;;
80694;SDS011;70059;42.702;23.312;2023-06-10T05:15:23;11.82;;;7.95;;
80694;SDS011;70059;42.702;23.312;2023-06-10T05:17:48;12.23;;;8.10;;
80694;SDS011;70059;42.702;23.312;2023-06-10T05:20:15;14.13;;;8.50;;
80694;SDS011;70059;42.702;23.312;2023-06-10T05:22:45;10.80;;;8.43;;
80694;SDS011;70059;42.702;23.312;2023-06-10T05:25:11;9.93;;;8.73;;
80694;SDS011;70059;42.702;23.312;2023-06-10T05:27:38;13.60;;;8.77;;
80694;SDS011;70059;42.702;23.312;2023-06-10T05:30:05;9.68;;;8.35;;
80694;SDS011;70059;42.702;23.312;2023-06-10T05:32:32;12.23;;;9.00;;
80694;SDS011;70059;42.702;23.312;2023-06-10T05:34:58;14.95;;;9.73;;
80694;SDS011;70059;42.702;23.312;2023-06-10T05:37:25;12.98;;;9.48;;
80694;SDS011;70059;42.702;23.312;2023-06-10T05:39:50;15.48;;;10.48;;
80694;SDS011;70059;42.702;23.312;2023-06-10T05:42:16;13.90;;;9.38;;
80694;SDS011;70059;42.702;23.312;2023-06-10T05:44:42;12.18;;;8.95;;
80694;SDS011;70059;42.702;23.312;2023-06-10T05:47:07;13.18;;;9.38;;
80694;SDS011;70059;42.702;23.312;2023-06-10T05:49:34;14.30;;;9.07;;
80694;SDS011;70059;42.702;23.312;2023-06-10T05:51:59;17.55;;;15.73;;
80694;SDS011;70059;42.702;23.312;2023-06-10T05:54:25;12.73;;;11.43;;
80694;SDS011;70059;42.702;23.312;2023-06-10T05:56:51;15.60;;;8.77;;
80694;SDS011;70059;42.702;23.312;2023-06-10T05:59:17;14.32;;;8.93;;
80694;SDS011;70059;42.702;23.312;2023-06-10T06:01:43;13.95;;;10.18;;
80694;SDS011;70059;42.702;23.312;2023-06-10T06:04:08;13.10;;;11.15;;
80694;SDS011;70059;42.702;23.312;2023-06-10T06:06:35;36.08;;;12.13;;
80694;SDS011;70059;42.702;23.312;2023-06-10T06:09:03;15.02;;;12.25;;
80694;SDS011;70059;42.702;23.312;2023-06-10T06:11:29;18.65;;;11.75;;
80694;SDS011;70059;42.702;23.312;2023-06-10T06:13:54;13.10;;;11.45;;
80694;SDS011;70059;42.702;23.312;2023-06-10T06:16:21;16.58;;;11.90;;
80694;SDS011;70059;42.702;23.312;2023-06-10T06:18:46;14.20;;;10.40;;
80694;SDS011;70059;42.702;23.312;2023-06-10T06:21:12;12.57;;;10.40;;
80694;SDS011;70059;42.702;23.312;2023-06-10T06:23:38;14.65;;;9.95;;
80694;SDS011;70059;42.702;23.312;2023-06-10T06:26:03;13.90;;;10.50;;
80694;SDS011;70059;42.702;23.312;2023-06-10T06:28:29;13.15;;;10.27;;
80694;SDS011;70059;42.702;23.312;2023-06-10T06:30:56;16.33;;;10.15;;
80694;SDS011;70059;42.702;23.312;2023-06-10T06:33:22;23.67;;;10.52;;
80694;SDS011;70059;42.702;23.312;2023-06-10T06:35:47;13.57;;;9.75;;
80694;SDS011;70059;42.702;23.312;2023-06-10T06:38:13;13.70;;;8.32;;
80694;SDS011;70059;42.702;23.312;2023-06-10T06:40:39;11.57;;;8.07;;
80694;SDS011;70059;42.702;23.312;2023-06-10T06:43:05;11.18;;;7.43;;
80694;SDS011;70059;42.702;23.312;2023-06-10T06:45:30;14.13;;;8.25;;
80694;SDS011;70059;42.702;23.312;2023-06-10T06:47:58;10.70;;;8.13;;
80694;SDS011;70059;42.702;23.312;2023-06-10T06:50:24;11.45;;;8.02;;
80694;SDS011;70059;42.702;23.312;2023-06-10T06:52:50;10.77;;;8.88;;
80694;SDS011;70059;42.702;23.312;2023-06-10T06:55:16;10.07;;;7.53;;
80694;SDS011;70059;42.702;23.312;2023-06-10T06:57:42;12.23;;;8.07;;
80694;SDS011;70059;42.702;23.312;2023-06-10T07:00:07;12.07;;;8.75;;
80694;SDS011;70059;42.702;23.312;2023-06-10T07:02:34;12.13;;;7.88;;
80694;SDS011;70059;42.702;23.312;2023-06-10T07:05:00;12.38;;;7.72;;
80694;SDS011;70059;42.702;23.312;2023-06-10T07:07:26;10.93;;;8.10;;
80694;SDS011;70059;42.702;23.312;2023-06-10T07:09:52;9.98;;;7.97;;
80694;SDS011;70059;42.702;23.312;2023-06-10T07:12:17;11.05;;;8.63;;
80694;SDS011;70059;42.702;23.312;2023-06-10T07:14:43;10.15;;;8.57;;
80694;SDS011;70059;42.702;23.312;2023-06-10T07:17:09;12.32;;;8.05;;
80694;SDS011;70059;42.702;23.312;2023-06-10T07:19:35;10.73;;;8.52;;
80694;SDS011;70059;42.702;23.312;2023-06-10T07:22:00;10.80;;;7.40;;
80694;SDS011;70059;42.702;23.312;2023-06-10T07:24:26;14.90;;;8.23;;
80694;SDS011;70059;42.702;23.312;2023-06-10T07:26:52;12.98;;;7.93;;
80694;SDS011;70059;42.702;23.312;2023-06-10T07:29:17;12.73;;;7.90;;
80694;SDS011;70059;42.702;23.312;2023-06-10T07:31:43;11.52;;;8.10;;
80694;SDS011;70059;42.702;23.312;2023-06-10T07:34:09;11.75;;;7.50;;
80694;SDS011;70059;42.702;23.312;2023-06-10T07:36:35;10.80;;;7.82;;
80694;SDS011;70059;42.702;23.312;2023-06-10T07:39:01;17.60;;;16.40;;
80694;SDS011;70059;42.702;23.312;2023-06-10T07:41:27;14.75;;;13.30;;
80694;SDS011;70059;42.702;23.312;2023-06-10T07:43:53;12.50;;;11.50;;
80694;SDS011;70059;42.702;23.312;2023-06-10T07:46:21;16.73;;;15.43;;
80694;SDS011;70059;42.702;23.312;2023-06-10T07:48:48;14.40;;;13.23;;
80694;SDS011;70059;42.702;23.312;2023-06-10T07:51:17;14.23;;;12.93;;
80694;SDS011;70059;42.702;23.312;2023-06-10T07:53:43;14.15;;;12.75;;
80694;SDS011;70059;42.702;23.312;2023-06-10T07:56:08;13.48;;;12.48;;
80694;SDS011;70059;42.702;23.312;2023-06-10T07:58:34;17.15;;;15.50;;
80694;SDS011;70059;42.702;23.312;2023-06-10T08:01:00;12.98;;;11.82;;
80694;SDS011;70059;42.702;23.312;2023-06-10T08:03:25;15.13;;;13.80;;
80694;SDS011;70059;42.702;23.312;2023-06-10T08:05:51;11.00;;;9.90;;
80694;SDS011;70059;42.702;23.312;2023-06-10T08:08:17;10.95;;;9.18;;
80694;SDS011;70059;42.702;23.312;2023-06-10T08:10:42;16.55;;;6.82;;
80694;SDS011;70059;42.702;23.312;2023-06-10T08:13:08;8.20;;;6.43;;
80694;SDS011;70059;42.702;23.312;2023-06-10T08:15:34;10.27;;;5.95;;
80694;SDS011;70059;42.702;23.312;2023-06-10T08:18:00;6.53;;;5.32;;
80694;SDS011;70059;42.702;23.312;2023-06-10T08:20:25;9.32;;;6.25;;
80694;SDS011;70059;42.702;23.312;2023-06-10T08:22:51;6.63;;;5.65;;
80694;SDS011;70059;42.702;23.312;2023-06-10T08:25:17;6.22;;;5.25;;
80694;SDS011;70059;42.702;23.312;2023-06-10T08:27:42;5.57;;;5.05;;
80694;SDS011;70059;42.702;23.312;2023-06-10T08:30:08;6.25;;;5.05;;
80694;SDS011;70059;42.702;23.312;2023-06-10T08:32:36;4.97;;;4.50;;
80694;SDS011;70059;42.702;23.312;2023-06-10T08:35:02;8.60;;;5.35;;
80694;SDS011;70059;42.702;23.312;2023-06-10T08:37:28;9.10;;;4.78;;
80694;SDS011;70059;42.702;23.312;2023-06-10T08:39:54;6.13;;;4.57;;
80694;SDS011;70059;42.702;23.312;2023-06-10T08:45:01;6.53;;;4.70;;
80694;SDS011;70059;42.702;23.312;2023-06-10T08:47:28;5.82;;;4.10;;
80694;SDS011;70059;42.702;23.312;2023-06-10T08:49:56;4.50;;;4.07;;
80694;SDS011;70059;42.702;23.312;2023-06-10T08:52:28;4.82;;;4.30;;
80694;SDS011;70059;42.702;23.312;2023-06-10T08:55:00;9.32;;;4.53;;
80694;SDS011;70059;42.702;23.312;2023-06-10T08:57:32;13.68;;;4.72;;
80694;SDS011;70059;42.702;23.312;2023-06-10T08:59:58;5.28;;;4.10;;
80694;SDS011;70059;42.702;23.312;2023-06-10T09:02:25;12.82;;;4.97;;
80694;SDS011;70059;42.702;23.312;2023-06-10T09:04:52;6.75;;;4.70;;
80694;SDS011;70059;42.702;23.312;2023-06-10T09:07:20;4.63;;;4.20;;
80694;SDS011;70059;42.702;23.312;2023-06-10T09:09:46;5.63;;;4.32;;
80694;SDS011;70059;42.702;23.312;2023-06-10T09:12:14;7.15;;;4.53;;
80694;SDS011;70059;42.702;23.312;2023-06-10T09:14:40;4.95;;;4.45;;
80694;SDS011;70059;42.702;23.312;2023-06-10T09:17:09;5.47;;;4.65;;
80694;SDS011;70059;42.702;23.312;2023-06-10T09:19:35;4.93;;;4.38;;
80694;SDS011;70059;42.702;23.312;2023-06-10T09:22:03;9.73;;;5.38;;
80694;SDS011;70059;42.702;23.312;2023-06-10T09:24:29;6.65;;;4.85;;
80694;SDS011;70059;42.702;23.312;2023-06-10T09:27:05;13.63;;;5.60;;
80694;SDS011;70059;42.702;23.312;2023-06-10T09:29:45;9.48;;;6.18;;
80694;SDS011;70059;42.702;23.312;2023-06-10T09:32:18;11.18;;;6.53;;
80694;SDS011;70059;42.702;23.312;2023-06-10T09:34:44;8.57;;;6.22;;
80694;SDS011;70059;42.702;23.312;2023-06-10T09:37:11;8.18;;;5.78;;
80694;SDS011;70059;42.702;23.312;2023-06-10T09:39:38;9.85;;;5.05;;
80694;SDS011;70059;42.702;23.312;2023-06-10T09:42:17;6.03;;;4.78;;
80694;SDS011;70059;42.702;23.312;2023-06-10T09:44:53;16.23;;;5.38;;
80694;SDS011;70059;42.702;23.312;2023-06-10T09:47:21;9.52;;;4.78;;
80694;SDS011;70059;42.702;23.312;2023-06-10T09:49:48;16.00;;;5.57;;
80694;SDS011;70059;42.702;23.312;2023-06-10T09:52:20;6.82;;;5.20;;
80694;SDS011;70059;42.702;23.312;2023-06-10T09:54:47;10.40;;;4.80;;
80694;SDS011;70059;42.702;23.312;2023-06-10T09:57:13;5.97;;;4.40;;
80694;SDS011;70059;42.702;23.312;2023-06-10T09:59:39;5.45;;;4.10;;
80694;SDS011;70059;42.702;23.312;2023-06-10T10:02:13;4.68;;;4.22;;
80694;SDS011;70059;42.702;23.312;2023-06-10T10:04:39;9.68;;;3.65;;
80694;SDS011;70059;42.702;23.312;2023-06-10T10:07:05;5.55;;;3.80;;
80694;SDS011;70059;42.702;23.312;2023-06-10T10:09:32;3.53;;;3.22;;
80694;SDS011;70059;42.702;23.312;2023-06-10T10:11:58;5.10;;;3.20;;
80694;SDS011;70059;42.702;23.312;2023-06-10T10:14:26;3.80;;;3.33;;
80694;SDS011;70059;42.702;23.312;2023-06-10T10:16:54;5.72;;;3.45;;
80694;SDS011;70059;42.702;23.312;2023-06-10T10:19:25;5.40;;;3.60;;
80694;SDS011;70059;42.702;23.312;2023-06-10T10:21:55;9.40;;;4.25;;
80694;SDS011;70059;42.702;23.312;2023-06-10T10:24:31;5.07;;;3.90;;
80694;SDS011;70059;42.702;23.312;2023-06-10T10:27:01;5.82;;;3.85;;
80694;SDS011;70059;42.702;23.312;2023-06-10T10:29:39;7.80;;;5.47;;
80694;SDS011;70059;42.702;23.312;2023-06-10T10:32:06;5.07;;;4.10;;
80694;SDS011;70059;42.702;23.312;2023-06-10T10:37:02;6.33;;;4.10;;
80694;SDS011;70059;42.702;23.312;2023-06-10T10:39:28;4.10;;;3.70;;
80694;SDS011;70059;42.702;23.312;2023-06-10T10:41:55;9.45;;;3.85;;
80694;SDS011;70059;42.702;23.312;2023-06-10T10:44:21;4.95;;;3.60;;
80694;SDS011;70059;42.702;23.312;2023-06-10T10:46:49;7.78;;;3.90;;
80694;SDS011;70059;42.702;23.312;2023-06-10T10:49:16;7.15;;;4.00;;
80694;SDS011;70059;42.702;23.312;2023-06-10T10:51:55;6.47;;;4.30;;
80694;SDS011;70059;42.702;23.312;2023-06-10T10:54:39;8.45;;;3.90;;
80694;SDS011;70059;42.702;23.312;2023-06-10T10:57:14;4.75;;;3.40;;
80694;SDS011;70059;42.702;23.312;2023-06-10T10:59:52;11.55;;;3.83;;
80694;SDS011;70059;42.702;23.312;2023-06-10T11:05:03;9.25;;;4.22;;
80694;SDS011;70059;42.702;23.312;2023-06-10T11:07:30;5.88;;;4.25;;
80694;SDS011;70059;42.702;23.312;2023-06-10T11:15:11;6.22;;;4.35;;
80694;SDS011;70059;42.702;23.312;2023-06-10T11:28:40;8.10;;;5.75;;
80694;SDS011;70059;42.702;23.312;2023-06-10T11:31:26;10.65;;;8.63;;
80694;SDS011;70059;42.702;23.312;2023-06-10T11:34:00;11.43;;;7.75;;
80694;SDS011;70059;42.702;23.312;2023-06-10T11:36:31;24.13;;;9.02;;
80694;SDS011;70059;42.702;23.312;2023-06-10T11:39:08;10.32;;;6.10;;
80694;SDS011;70059;42.702;23.312;2023-06-10T11:41:35;9.50;;;5.07;;
80694;SDS011;70059;42.702;23.312;2023-06-10T11:44:04;5.97;;;4.80;;
80694;SDS011;70059;42.702;23.312;2023-06-10T11:46:34;6.75;;;4.60;;
80694;SDS011;70059;42.702;23.312;2023-06-10T11:49:00;8.10;;;4.60;;
80694;SDS011;70059;42.702;23.312;2023-06-10T11:51:39;9.40;;;5.10;;
80694;SDS011;70059;42.702;23.312;2023-06-10T11:54:11;8.10;;;5.10;;
80694;SDS011;70059;42.702;23.312;2023-06-10T11:56:36;5.60;;;4.82;;
80694;SDS011;70059;42.702;23.312;2023-06-10T11:59:05;10.25;;;5.00;;
80694;SDS011;70059;42.702;23.312;2023-06-10T12:04:05;8.57;;;5.07;;
80694;SDS011;70059;42.702;23.312;2023-06-10T12:12:00;6.63;;;4.40;;
80694;SDS011;70059;42.702;23.312;2023-06-10T12:19:58;7.30;;;4.75;;
80694;SDS011;70059;42.702;23.312;2023-06-10T12:22:25;4.25;;;3.80;;
80694;SDS011;70059;42.702;23.312;2023-06-10T12:25:04;4.72;;;4.30;;
80694;SDS011;70059;42.702;23.312;2023-06-10T12:27:31;5.28;;;4.53;;
80694;SDS011;70059;42.702;23.312;2023-06-10T12:29:59;5.00;;;4.43;;
80694;SDS011;70059;42.702;23.312;2023-06-10T12:32:38;5.18;;;4.55;;
80694;SDS011;70059;42.702;23.312;2023-06-10T12:35:05;5.97;;;4.78;;
80694;SDS011;70059;42.702;23.312;2023-06-10T12:37:32;6.38;;;4.50;;
80694;SDS011;70059;42.702;23.312;2023-06-10T12:40:02;7.03;;;5.00;;
80694;SDS011;70059;42.702;23.312;2023-06-10T12:42:31;5.93;;;4.65;;
80694;SDS011;70059;42.702;23.312;2023-06-10T12:44:59;14.45;;;13.55;;
80694;SDS011;70059;42.702;23.312;2023-06-10T12:47:35;13.73;;;12.63;;
80694;SDS011;70059;42.702;23.312;2023-06-10T12:50:05;13.15;;;11.93;;
80694;SDS011;70059;42.702;23.312;2023-06-10T12:52:32;11.50;;;10.60;;
80694;SDS011;70059;42.702;23.312;2023-06-10T12:54:58;12.45;;;11.55;;
80694;SDS011;70059;42.702;23.312;2023-06-10T12:57:24;12.68;;;11.68;;
80694;SDS011;70059;42.702;23.312;2023-06-10T12:59:50;11.98;;;11.07;;
80694;SDS011;70059;42.702;23.312;2023-06-10T13:02:20;12.27;;;11.23;;
80694;SDS011;70059;42.702;23.312;2023-06-10T13:04:48;12.75;;;11.25;;
80694;SDS011;70059;42.702;23.312;2023-06-10T13:07:15;12.32;;;11.23;;
80694;SDS011;70059;42.702;23.312;2023-06-10T13:09:41;11.40;;;10.60;;
80694;SDS011;70059;42.702;23.312;2023-06-10T13:12:07;11.13;;;10.23;;
80694;SDS011;70059;42.702;23.312;2023-06-10T13:14:35;11.90;;;11.10;;
80694;SDS011;70059;42.702;23.312;2023-06-10T13:17:03;14.02;;;11.95;;
80694;SDS011;70059;42.702;23.312;2023-06-10T13:19:33;14.38;;;11.68;;
80694;SDS011;70059;42.702;23.312;2023-06-10T13:21:59;12.38;;;11.25;;
80694;SDS011;70059;42.702;23.312;2023-06-10T13:24:25;12.40;;;11.18;;
80694;SDS011;70059;42.702;23.312;2023-06-10T13:26:52;12.75;;;11.30;;
80694;SDS011;70059;42.702;23.312;2023-06-10T13:29:19;13.65;;;11.68;;
80694;SDS011;70059;42.702;23.312;2023-06-10T13:31:45;11.65;;;10.65;;
80694;SDS011;70059;42.702;23.312;2023-06-10T13:34:11;13.23;;;11.88;;
80694;SDS011;70059;42.702;23.312;2023-06-10T13:36:37;12.43;;;11.32;;
80694;SDS011;70059;42.702;23.312;2023-06-10T13:39:03;13.00;;;11.70;;
80694;SDS011;70059;42.702;23.312;2023-06-10T13:41:29;12.48;;;11.18;;
80694;SDS011;70059;42.702;23.312;2023-06-10T13:43:55;12.23;;;10.90;;
80694;SDS011;70059;42.702;23.312;2023-06-10T13:46:23;12.90;;;11.68;;
80694;SDS011;70059;42.702;23.312;2023-06-10T13:48:49;13.00;;;11.90;;
80694;SDS011;70059;42.702;23.312;2023-06-10T13:51:15;14.00;;;12.70;;
80694;SDS011;70059;42.702;23.312;2023-06-10T13:53:40;17.17;;;15.40;;
80694;SDS011;70059;42.702;23.312;2023-06-10T13:56:06;24.98;;;17.88;;
80694;SDS011;70059;42.702;23.312;2023-06-10T13:58:32;15.60;;;14.00;;
80694;SDS011;70059;42.702;23.312;2023-06-10T14:01:03;14.23;;;12.82;;
80694;SDS011;70059;42.702;23.312;2023-06-10T14:03:29;29.30;;;20.73;;
80694;SDS011;70059;42.702;23.312;2023-06-10T14:05:55;22.02;;;17.50;;
80694;SDS011;70059;42.702;23.312;2023-06-10T14:08:21;13.02;;;11.82;;
80694;SDS011;70059;42.702;23.312;2023-06-10T14:10:47;18.02;;;14.00;;
80694;SDS011;70059;42.702;23.312;2023-06-10T14:13:13;13.63;;;12.43;;
80694;SDS011;70059;42.702;23.312;2023-06-10T14:15:39;12.68;;;11.57;;
80694;SDS011;70059;42.702;23.312;2023-06-10T14:18:04;13.73;;;11.82;;
80694;SDS011;70059;42.702;23.312;2023-06-10T14:20:30;20.88;;;16.98;;
80694;SDS011;70059;42.702;23.312;2023-06-10T14:22:56;13.05;;;12.00;;
80694;SDS011;70059;42.702;23.312;2023-06-10T14:25:23;16.73;;;13.73;;
80694;SDS011;70059;42.702;23.312;2023-06-10T14:27:49;18.27;;;15.00;;
80694;SDS011;70059;42.702;23.312;2023-06-10T14:30:15;14.70;;;13.23;;
80694;SDS011;70059;42.702;23.312;2023-06-10T14:32:41;13.18;;;12.10;;
80694;SDS011;70059;42.702;23.312;2023-06-10T14:35:08;12.02;;;10.93;;
80694;SDS011;70059;42.702;23.312;2023-06-10T14:37:34;12.93;;;11.65;;
80694;SDS011;70059;42.702;23.312;2023-06-10T14:40:00;12.90;;;11.70;;
80694;SDS011;70059;42.702;23.312;2023-06-10T14:42:26;13.20;;;12.00;;
80694;SDS011;70059;42.702;23.312;2023-06-10T14:44:52;14.23;;;12.77;;
80694;SDS011;70059;42.702;23.312;2023-06-10T14:47:17;14.05;;;12.73;;
80694;SDS011;70059;42.702;23.312;2023-06-10T14:49:43;13.07;;;11.98;;
80694;SDS011;70059;42.702;23.312;2023-06-10T14:52:09;12.93;;;11.48;;
80694;SDS011;70059;42.702;23.312;2023-06-10T14:54:35;12.80;;;11.63;;
80694;SDS011;70059;42.702;23.312;2023-06-10T14:57:00;11.95;;;10.95;;
80694;SDS011;70059;42.702;23.312;2023-06-10T14:59:26;12.07;;;11.07;;